createdAt,value
2023-05-09T00:00:32.898Z,2.30
2023-05-09T00:03:00.178Z,2.30
2023-05-09T00:05:27.281Z,2.30
2023-05-09T00:07:54.232Z,2.40
2023-05-09T00:10:21.407Z,2.40
2023-05-09T00:12:49.566Z,2.40
2023-05-09T00:15:16.693Z,2.30
2023-05-09T00:17:45.905Z,2.30
2023-05-09T00:20:13.158Z,2.20
2023-05-09T00:22:43.350Z,2.20
2023-05-09T00:25:12.008Z,2.10
2023-05-09T00:27:39.219Z,2.10
2023-05-09T00:30:07.086Z,2.00
2023-05-09T00:32:34.493Z,2.00
2023-05-09T00:35:01.509Z,2.00
2023-05-09T00:37:30.665Z,2.00
2023-05-09T00:39:57.615Z,1.90
2023-05-09T00:42:24.576Z,1.90
2023-05-09T00:44:51.508Z,1.90
2023-05-09T00:47:18.574Z,1.90
2023-05-09T00:49:46.063Z,1.80
2023-05-09T00:52:13.109Z,1.70
2023-05-09T00:54:40.268Z,1.70
2023-05-09T00:57:07.616Z,1.60
2023-05-09T00:59:36.170Z,1.50
2023-05-09T01:02:03.362Z,1.50
2023-05-09T01:04:47.551Z,1.40
2023-05-09T01:07:23.557Z,1.50
2023-05-09T01:10:12.120Z,1.50
2023-05-09T01:12:49.928Z,1.40
2023-05-09T01:15:28.632Z,1.40
2023-05-09T01:18:13.518Z,1.40
2023-05-09T01:20:47.458Z,1.40
2023-05-09T01:23:42.514Z,1.40
2023-05-09T01:26:28.079Z,1.30
2023-05-09T01:28:58.051Z,1.30
2023-05-09T01:31:27.046Z,1.30
2023-05-09T01:34:00.076Z,1.30
2023-05-09T01:36:30.345Z,1.30
2023-05-09T01:38:58.889Z,1.30
2023-05-09T01:41:30.842Z,1.30
2023-05-09T01:44:01.086Z,1.20
2023-05-09T01:46:29.373Z,1.20
2023-05-09T01:48:57.505Z,1.30
2023-05-09T01:51:27.023Z,1.30
2023-05-09T01:53:56.859Z,1.30
2023-05-09T01:56:25.765Z,1.40
2023-05-09T01:58:54.507Z,1.40
2023-05-09T02:01:22.374Z,1.40
2023-05-09T02:03:52.722Z,1.40
2023-05-09T02:06:23.429Z,1.40
2023-05-09T02:08:50.981Z,1.30
2023-05-09T02:11:18.090Z,1.20
2023-05-09T02:13:45.105Z,1.20
2023-05-09T02:16:12.322Z,1.10
2023-05-09T02:18:39.732Z,1.10
2023-05-09T02:21:06.930Z,1.00
2023-05-09T02:23:34.580Z,1.00
2023-05-09T02:26:02.351Z,0.90
2023-05-09T02:28:30.008Z,0.90
2023-05-09T02:31:00.232Z,0.90
2023-05-09T02:33:28.253Z,0.90
2023-05-09T02:35:56.600Z,0.80
2023-05-09T02:38:24.283Z,0.90
2023-05-09T02:40:52.692Z,0.90
2023-05-09T02:43:19.741Z,0.90
2023-05-09T02:45:46.690Z,0.90
2023-05-09T02:48:13.749Z,1.00
2023-05-09T02:50:42.983Z,1.10
2023-05-09T02:53:09.945Z,1.20
2023-05-09T02:55:36.940Z,1.30
2023-05-09T02:58:13.352Z,1.40
2023-05-09T03:00:42.027Z,1.80
2023-05-09T03:03:09.312Z,2.50
2023-05-09T03:05:36.402Z,3.40
2023-05-09T03:08:03.606Z,4.20
2023-05-09T03:10:30.674Z,4.90
2023-05-09T03:12:57.718Z,5.60
2023-05-09T03:15:24.735Z,6.40
2023-05-09T03:17:51.857Z,7.30
2023-05-09T03:20:19.188Z,8.20
2023-05-09T03:22:46.270Z,8.90
2023-05-09T03:25:13.491Z,9.50
2023-05-09T03:27:40.659Z,10.10
2023-05-09T03:30:08.339Z,10.60
2023-05-09T03:32:35.437Z,11.20
2023-05-09T03:35:02.458Z,11.70
2023-05-09T03:37:30.030Z,12.00
2023-05-09T03:39:57.023Z,12.30
2023-05-09T03:42:23.991Z,12.60
2023-05-09T03:44:50.942Z,12.80
2023-05-09T03:47:17.884Z,12.90
2023-05-09T03:49:44.817Z,13.10
2023-05-09T03:52:11.796Z,13.40
2023-05-09T03:54:38.727Z,13.70
2023-05-09T03:57:05.849Z,13.80
2023-05-09T03:59:32.758Z,13.90
2023-05-09T04:01:59.707Z,13.90
2023-05-09T04:04:26.846Z,14.00
2023-05-09T04:06:53.834Z,14.00
2023-05-09T04:09:20.900Z,14.00
2023-05-09T04:11:47.865Z,14.20
2023-05-09T04:14:14.831Z,14.10
2023-05-09T04:16:51.748Z,14.10
2023-05-09T04:19:19.071Z,14.00
2023-05-09T04:21:46.085Z,13.90
2023-05-09T04:24:13.009Z,13.80
2023-05-09T04:26:40.000Z,13.80
2023-05-09T04:29:06.944Z,13.90
2023-05-09T04:31:34.095Z,14.00
2023-05-09T04:34:01.152Z,14.10
2023-05-09T04:36:29.084Z,14.30
2023-05-09T04:38:56.284Z,14.60
2023-05-09T04:41:24.093Z,14.80
2023-05-09T04:43:51.921Z,15.00
2023-05-09T04:46:18.923Z,15.40
2023-05-09T04:48:46.474Z,15.60
2023-05-09T04:51:13.422Z,15.90
2023-05-09T04:53:40.492Z,16.20
2023-05-09T04:56:07.635Z,16.70
2023-05-09T04:58:38.434Z,17.00
2023-05-09T05:01:06.972Z,17.40
2023-05-09T05:03:33.939Z,17.60
2023-05-09T05:06:00.937Z,17.90
2023-05-09T05:08:27.850Z,18.10
2023-05-09T05:10:54.806Z,18.60
2023-05-09T05:13:21.931Z,19.00
2023-05-09T05:15:49.859Z,19.50
2023-05-09T05:18:17.278Z,19.80
2023-05-09T05:20:44.481Z,20.10
2023-05-09T05:23:11.412Z,20.30
2023-05-09T05:25:38.578Z,20.10
2023-05-09T05:28:05.629Z,20.10
2023-05-09T05:30:34.340Z,20.00
2023-05-09T05:33:01.744Z,20.00
2023-05-09T05:35:29.529Z,20.10
2023-05-09T05:37:56.714Z,20.10
2023-05-09T05:40:23.775Z,20.20
2023-05-09T05:42:50.807Z,20.30
2023-05-09T05:45:17.945Z,20.70
2023-05-09T05:47:45.789Z,21.00
2023-05-09T05:50:13.160Z,21.10
2023-05-09T05:52:40.879Z,21.20
2023-05-09T05:55:08.345Z,21.40
2023-05-09T05:57:35.480Z,21.30
2023-05-09T06:00:05.731Z,21.30
2023-05-09T06:02:32.777Z,21.50
2023-05-09T06:04:59.805Z,21.60
2023-05-09T06:07:27.390Z,21.50
2023-05-09T06:09:54.317Z,21.30
2023-05-09T06:12:21.272Z,21.40
2023-05-09T06:14:48.206Z,21.60
2023-05-09T06:17:15.275Z,21.90
2023-05-09T06:19:42.337Z,21.90
2023-05-09T06:22:09.283Z,21.70
2023-05-09T06:24:36.702Z,21.60
2023-05-09T06:27:04.384Z,21.70
2023-05-09T06:29:31.357Z,21.90
2023-05-09T06:31:58.281Z,21.90
2023-05-09T06:34:25.347Z,21.80
2023-05-09T06:36:52.745Z,21.70
2023-05-09T06:39:19.661Z,21.70
2023-05-09T06:41:46.764Z,21.60
2023-05-09T06:44:13.779Z,21.60
2023-05-09T06:46:43.453Z,21.70
2023-05-09T06:49:11.140Z,21.80
2023-05-09T06:51:38.123Z,21.80
2023-05-09T06:54:05.120Z,21.80
2023-05-09T06:56:32.217Z,21.70
2023-05-09T06:58:59.217Z,21.60
2023-05-09T07:01:26.328Z,21.50
2023-05-09T07:03:53.378Z,21.50
2023-05-09T07:06:20.798Z,21.50
2023-05-09T07:08:47.775Z,21.80
2023-05-09T07:11:14.713Z,22.00
2023-05-09T07:13:41.878Z,22.30
2023-05-09T07:16:08.952Z,22.50
2023-05-09T07:18:35.972Z,22.50
2023-05-09T07:21:02.918Z,22.70
2023-05-09T07:23:29.851Z,22.60
2023-05-09T07:25:58.724Z,22.70
2023-05-09T07:28:26.385Z,22.70
2023-05-09T07:30:55.600Z,22.70
2023-05-09T07:33:22.735Z,22.70
2023-05-09T07:35:49.807Z,22.70
2023-05-09T07:38:16.746Z,22.50
2023-05-09T07:40:43.699Z,22.30
2023-05-09T07:43:10.785Z,22.30
2023-05-09T07:45:37.727Z,22.30
2023-05-09T07:48:05.063Z,22.30
2023-05-09T07:50:32.065Z,22.20
2023-05-09T07:53:00.209Z,22.10
2023-05-09T07:55:27.185Z,21.90
2023-05-09T07:57:54.123Z,21.80
2023-05-09T08:00:23.895Z,21.70
2023-05-09T08:02:51.985Z,21.60
2023-05-09T08:05:19.332Z,21.60
2023-05-09T08:07:46.658Z,21.60
2023-05-09T08:10:13.655Z,21.50
2023-05-09T08:12:40.781Z,21.30
2023-05-09T08:15:08.345Z,21.20
2023-05-09T08:17:35.496Z,21.10
2023-05-09T08:20:02.492Z,21.20
2023-05-09T08:22:29.464Z,21.10
2023-05-09T08:24:56.383Z,21.10
2023-05-09T08:27:23.281Z,21.10
2023-05-09T08:29:50.211Z,21.10
2023-05-09T08:32:17.437Z,21.20
2023-05-09T08:34:44.357Z,21.20
2023-05-09T08:37:12.952Z,21.20
2023-05-09T08:39:42.076Z,21.00
2023-05-09T08:42:10.315Z,20.70
2023-05-09T08:44:37.380Z,20.60
2023-05-09T08:47:05.277Z,20.50
2023-05-09T08:49:33.522Z,20.50
2023-05-09T08:52:00.672Z,20.40
2023-05-09T08:54:27.923Z,20.30
2023-05-09T08:56:55.381Z,20.20
2023-05-09T08:59:22.703Z,20.20
2023-05-09T09:01:50.308Z,20.20
2023-05-09T09:04:17.514Z,20.30
2023-05-09T09:06:45.547Z,20.30
2023-05-09T09:09:14.026Z,20.20
2023-05-09T09:11:42.274Z,20.10
2023-05-09T09:14:13.986Z,20.10
2023-05-09T09:16:43.708Z,20.10
2023-05-09T09:19:13.565Z,19.90
2023-05-09T09:21:44.992Z,19.90
2023-05-09T09:24:14.321Z,20.10
2023-05-09T09:26:48.491Z,19.90
2023-05-09T09:29:15.990Z,19.60
2023-05-09T09:31:47.672Z,19.60
2023-05-09T09:34:21.402Z,19.70
2023-05-09T09:36:48.693Z,19.80
2023-05-09T09:39:16.084Z,19.90
2023-05-09T09:41:45.065Z,19.80
2023-05-09T09:44:13.479Z,19.90
2023-05-09T09:46:52.897Z,20.00
2023-05-09T09:49:22.741Z,19.90
2023-05-09T09:51:54.395Z,19.90
2023-05-09T09:54:21.763Z,19.90
2023-05-09T09:56:51.949Z,19.80
2023-05-09T09:59:22.391Z,19.80
2023-05-09T10:02:04.874Z,19.80
2023-05-09T10:04:36.563Z,19.70
2023-05-09T10:07:12.783Z,19.60
2023-05-09T10:09:42.491Z,19.50
2023-05-09T10:12:09.545Z,19.70
2023-05-09T10:14:38.725Z,19.80
2023-05-09T10:17:06.463Z,19.80
2023-05-09T10:19:36.200Z,19.80
2023-05-09T10:22:05.944Z,19.80
2023-05-09T10:24:51.359Z,19.70
2023-05-09T10:27:22.299Z,19.60
2023-05-09T10:29:57.513Z,19.60
2023-05-09T10:32:31.590Z,19.60
2023-05-09T10:35:05.927Z,19.80
2023-05-09T10:37:33.676Z,19.80
2023-05-09T10:40:05.122Z,19.80
2023-05-09T10:42:32.260Z,19.70
2023-05-09T10:44:59.297Z,19.60
2023-05-09T10:47:28.097Z,19.60
2023-05-09T10:49:56.096Z,19.70
2023-05-09T10:52:23.149Z,19.70
2023-05-09T10:55:04.511Z,19.70
2023-05-09T10:57:32.385Z,19.80
2023-05-09T11:00:00.673Z,19.70
2023-05-09T11:02:32.500Z,19.80
2023-05-09T11:05:19.306Z,19.90
2023-05-09T11:07:46.338Z,19.70
2023-05-09T11:10:19.481Z,19.70
2023-05-09T11:13:00.874Z,19.80
2023-05-09T11:15:28.747Z,19.90
2023-05-09T11:18:11.921Z,19.90
2023-05-09T11:20:48.517Z,19.90
2023-05-09T11:23:25.683Z,19.90
2023-05-09T11:25:53.210Z,19.90
2023-05-09T11:28:28.490Z,20.00
2023-05-09T11:31:08.787Z,20.10
2023-05-09T11:33:37.145Z,20.00
2023-05-09T11:36:20.244Z,20.00
2023-05-09T11:38:48.089Z,19.90
2023-05-09T11:41:15.992Z,19.90
2023-05-09T11:43:44.755Z,19.70
2023-05-09T11:46:13.041Z,19.70
2023-05-09T11:48:41.943Z,19.80
2023-05-09T11:51:19.498Z,19.80
2023-05-09T11:53:50.617Z,19.80
2023-05-09T11:56:17.988Z,19.80
2023-05-09T11:58:46.820Z,19.70
2023-05-09T12:01:13.896Z,19.70
2023-05-09T12:03:47.040Z,19.90
2023-05-09T12:06:18.365Z,19.90
2023-05-09T12:08:46.367Z,19.80
2023-05-09T12:11:15.095Z,19.80
2023-05-09T12:13:49.869Z,19.80
2023-05-09T12:16:18.260Z,19.90
2023-05-09T12:18:49.879Z,19.90
2023-05-09T12:21:20.893Z,19.70
2023-05-09T12:23:50.892Z,19.60
2023-05-09T12:26:18.712Z,19.60
2023-05-09T12:28:46.008Z,19.60
2023-05-09T12:31:13.294Z,19.60
2023-05-09T12:33:40.583Z,19.60
2023-05-09T12:36:12.044Z,19.70
2023-05-09T12:38:39.306Z,19.80
2023-05-09T12:41:15.504Z,19.90
2023-05-09T12:43:56.241Z,20.00
2023-05-09T12:46:23.585Z,20.00
2023-05-09T12:48:50.665Z,20.00
2023-05-09T12:51:21.766Z,19.90
2023-05-09T12:53:49.606Z,20.00
2023-05-09T12:56:25.422Z,20.00
2023-05-09T12:58:54.908Z,20.00
2023-05-09T13:01:27.484Z,20.10
2023-05-09T13:04:02.956Z,20.20
2023-05-09T13:06:30.031Z,20.00
2023-05-09T13:09:02.366Z,20.00
2023-05-09T13:11:29.993Z,19.90
2023-05-09T13:13:57.242Z,19.90
2023-05-09T13:16:24.573Z,20.00
2023-05-09T13:18:51.566Z,19.90
2023-05-09T13:21:18.560Z,19.80
2023-05-09T13:23:45.855Z,19.90
2023-05-09T13:26:12.965Z,19.90
2023-05-09T13:28:40.035Z,20.00
2023-05-09T13:31:08.116Z,19.90
2023-05-09T13:33:35.175Z,19.80
2023-05-09T13:36:02.293Z,19.80
2023-05-09T13:38:31.111Z,19.80
2023-05-09T13:40:58.444Z,19.80
2023-05-09T13:43:25.494Z,19.80
2023-05-09T13:45:52.527Z,19.80
2023-05-09T13:48:19.469Z,19.80
2023-05-09T13:50:47.050Z,19.90
2023-05-09T13:53:13.952Z,19.90
2023-05-09T13:55:40.892Z,20.00
2023-05-09T13:58:07.820Z,20.00
2023-05-09T14:00:35.077Z,20.00
2023-05-09T14:03:03.257Z,19.80
2023-05-09T14:05:33.658Z,19.80
2023-05-09T14:08:02.022Z,19.90
2023-05-09T14:10:29.116Z,19.90
2023-05-09T14:12:57.088Z,19.90
2023-05-09T14:15:24.060Z,19.90
2023-05-09T14:17:51.087Z,19.80
2023-05-09T14:20:18.268Z,19.70
2023-05-09T14:22:45.325Z,19.60
2023-05-09T14:25:12.702Z,19.60
2023-05-09T14:27:39.641Z,19.50
2023-05-09T14:30:07.376Z,19.50
2023-05-09T14:32:34.385Z,19.40
2023-05-09T14:35:01.391Z,19.30
2023-05-09T14:37:29.560Z,19.30
2023-05-09T14:39:56.626Z,19.30
2023-05-09T14:42:23.732Z,19.30
2023-05-09T14:44:50.719Z,19.30
2023-05-09T14:47:17.745Z,19.30
2023-05-09T14:49:44.729Z,19.20
2023-05-09T14:52:11.877Z,19.20
2023-05-09T14:54:38.819Z,19.10
2023-05-09T14:57:07.575Z,19.20
2023-05-09T14:59:36.812Z,19.20
2023-05-09T15:02:04.378Z,19.10
2023-05-09T15:04:31.724Z,19.00
2023-05-09T15:06:59.244Z,18.90
2023-05-09T15:09:26.933Z,19.00
2023-05-09T15:11:54.958Z,19.10
2023-05-09T15:14:22.111Z,19.00
2023-05-09T15:16:51.694Z,19.00
2023-05-09T15:19:19.101Z,18.90
2023-05-09T15:21:46.104Z,18.90
2023-05-09T15:24:13.124Z,18.90
2023-05-09T15:26:40.117Z,18.80
2023-05-09T15:29:07.201Z,18.70
2023-05-09T15:31:35.894Z,18.60
2023-05-09T15:34:02.911Z,18.60
2023-05-09T15:36:30.280Z,18.60
2023-05-09T15:38:57.452Z,18.60
2023-05-09T15:41:25.085Z,18.60
2023-05-09T15:43:52.776Z,18.50
2023-05-09T15:46:19.798Z,18.30
2023-05-09T15:48:47.468Z,18.30
2023-05-09T15:51:14.408Z,18.30
2023-05-09T15:53:41.492Z,18.20
2023-05-09T15:56:09.251Z,18.30
2023-05-09T15:58:36.870Z,18.30
2023-05-09T16:01:06.261Z,18.30
2023-05-09T16:03:33.598Z,18.30
2023-05-09T16:06:01.095Z,18.40
2023-05-09T16:08:28.060Z,18.30
2023-05-09T16:10:54.998Z,18.10
2023-05-09T16:13:22.606Z,17.90
2023-05-09T16:15:51.210Z,17.90
2023-05-09T16:18:18.823Z,17.80
2023-05-09T16:20:45.844Z,17.70
2023-05-09T16:23:13.274Z,17.50
2023-05-09T16:25:40.289Z,17.40
2023-05-09T16:28:08.408Z,17.20
2023-05-09T16:30:35.378Z,17.20
2023-05-09T16:33:02.369Z,17.10
2023-05-09T16:35:29.794Z,17.10
2023-05-09T16:37:56.999Z,17.00
2023-05-09T16:40:24.208Z,17.00
2023-05-09T16:42:51.195Z,17.00
2023-05-09T16:45:18.156Z,17.00
2023-05-09T16:47:45.172Z,17.00
2023-05-09T16:50:12.253Z,17.00
2023-05-09T16:52:39.296Z,16.90
2023-05-09T16:55:06.722Z,16.90
2023-05-09T16:57:33.742Z,16.70
2023-05-09T17:00:00.850Z,16.70
2023-05-09T17:02:27.952Z,16.50
2023-05-09T17:04:55.123Z,16.50
2023-05-09T17:07:22.410Z,16.40
2023-05-09T17:09:49.723Z,16.30
2023-05-09T17:12:18.560Z,16.20
2023-05-09T17:14:46.998Z,16.20
2023-05-09T17:17:14.914Z,16.20
2023-05-09T17:19:42.021Z,16.00
2023-05-09T17:22:09.358Z,15.90
2023-05-09T17:24:36.588Z,15.80
2023-05-09T17:27:04.303Z,15.70
2023-05-09T17:29:31.369Z,15.50
2023-05-09T17:32:02.163Z,15.40
2023-05-09T17:34:29.325Z,15.20
2023-05-09T17:36:56.659Z,15.00
2023-05-09T17:39:24.097Z,14.90
2023-05-09T17:41:51.033Z,14.70
2023-05-09T17:44:18.105Z,14.60
2023-05-09T17:46:45.131Z,14.50
2023-05-09T17:49:14.125Z,14.40
2023-05-09T17:51:41.576Z,14.30
2023-05-09T17:54:08.761Z,14.10
2023-05-09T17:56:35.721Z,13.90
2023-05-09T17:59:02.860Z,13.80
2023-05-09T18:01:29.908Z,13.60
2023-05-09T18:03:57.166Z,13.50
2023-05-09T18:06:24.384Z,13.30
2023-05-09T18:08:51.561Z,13.20
2023-05-09T18:11:18.500Z,13.00
2023-05-09T18:13:45.437Z,12.80
2023-05-09T18:16:12.432Z,12.70
2023-05-09T18:18:39.472Z,12.60
2023-05-09T18:21:08.116Z,12.40
2023-05-09T18:23:35.117Z,12.30
2023-05-09T18:26:02.071Z,12.10
2023-05-09T18:28:29.304Z,12.00
2023-05-09T18:30:58.680Z,11.80
2023-05-09T18:33:28.115Z,11.70
2023-05-09T18:35:55.764Z,11.60
2023-05-09T18:38:22.910Z,11.40
2023-05-09T18:40:52.288Z,11.30
2023-05-09T18:43:21.639Z,11.20
2023-05-09T18:45:49.294Z,11.00
2023-05-09T18:48:17.106Z,10.90
2023-05-09T18:50:44.305Z,10.80
2023-05-09T18:53:11.234Z,10.70
2023-05-09T18:55:38.361Z,10.50
2023-05-09T18:58:05.328Z,10.40
2023-05-09T19:00:32.485Z,10.30
2023-05-09T19:02:59.544Z,10.20
2023-05-09T19:05:27.562Z,10.20
2023-05-09T19:07:54.568Z,10.10
2023-05-09T19:10:21.622Z,10.00
2023-05-09T19:12:49.324Z,9.90
2023-05-09T19:15:16.512Z,9.80
2023-05-09T19:17:43.690Z,9.80
2023-05-09T19:20:11.592Z,9.80
2023-05-09T19:22:41.239Z,9.80
2023-05-09T19:25:08.745Z,9.80
2023-05-09T19:27:35.695Z,9.80
2023-05-09T19:30:05.084Z,9.70
2023-05-09T19:32:32.287Z,9.60
2023-05-09T19:34:59.294Z,9.50
2023-05-09T19:37:26.258Z,9.40
2023-05-09T19:39:53.521Z,9.20
2023-05-09T19:42:21.604Z,9.10
2023-05-09T19:44:48.746Z,9.00
2023-05-09T19:47:15.791Z,8.90
2023-05-09T19:49:43.156Z,8.90
2023-05-09T19:52:10.246Z,8.90
2023-05-09T19:54:37.227Z,8.80
2023-05-09T19:57:06.561Z,8.80
2023-05-09T19:59:33.575Z,8.70
2023-05-09T20:02:00.716Z,8.60
2023-05-09T20:04:27.663Z,8.50
2023-05-09T20:06:54.600Z,8.40
2023-05-09T20:09:21.624Z,8.30
2023-05-09T20:11:48.829Z,8.20
2023-05-09T20:14:15.939Z,8.10
2023-05-09T20:16:44.149Z,8.00
2023-05-09T20:19:15.352Z,7.90
2023-05-09T20:21:42.330Z,7.80
2023-05-09T20:24:09.557Z,7.80
2023-05-09T20:26:36.498Z,7.70
2023-05-09T20:29:03.466Z,7.70
2023-05-09T20:31:31.724Z,7.60
2023-05-09T20:33:58.832Z,7.50
2023-05-09T20:36:27.819Z,7.50
2023-05-09T20:38:56.408Z,7.40
2023-05-09T20:41:24.117Z,7.30
2023-05-09T20:43:51.162Z,7.30
2023-05-09T20:46:18.379Z,7.30
2023-05-09T20:48:45.598Z,7.30
2023-05-09T20:51:12.499Z,7.20
2023-05-09T20:53:39.562Z,7.20
2023-05-09T20:56:06.575Z,7.10
2023-05-09T20:59:29.889Z,7.10
2023-05-09T21:01:56.867Z,7.10
2023-05-09T21:04:23.909Z,7.10
2023-05-09T21:06:50.961Z,7.00
2023-05-09T21:09:18.606Z,7.00
2023-05-09T21:11:46.141Z,7.00
2023-05-09T21:14:13.159Z,7.00
2023-05-09T21:16:40.268Z,7.00
2023-05-09T21:19:08.417Z,7.00
2023-05-09T21:21:35.507Z,6.90
2023-05-09T21:24:04.359Z,6.80
2023-05-09T21:26:32.544Z,6.70
2023-05-09T21:28:59.539Z,6.70
2023-05-09T21:31:26.961Z,6.60
2023-05-09T21:33:54.009Z,6.50
2023-05-09T21:36:20.921Z,6.40
2023-05-09T21:38:47.891Z,6.40
2023-05-09T21:41:14.815Z,6.30
2023-05-09T21:43:41.775Z,6.30
2023-05-09T21:46:08.796Z,6.20
2023-05-09T21:48:35.945Z,6.20
2023-05-09T21:51:03.650Z,6.10
2023-05-09T21:53:30.630Z,6.10
2023-05-09T21:55:57.562Z,6.10
2023-05-09T21:58:24.613Z,6.10
2023-05-09T22:00:51.649Z,6.20
2023-05-09T22:04:05.673Z,6.20
2023-05-09T22:06:32.991Z,6.30
2023-05-09T22:08:59.987Z,6.30
2023-05-09T22:11:26.935Z,6.30
2023-05-09T22:13:54.309Z,6.30
2023-05-09T22:16:22.543Z,6.20
2023-05-09T22:18:49.536Z,6.20
2023-05-09T22:21:50.661Z,6.10
2023-05-09T22:24:17.642Z,6.00
2023-05-09T22:26:44.568Z,6.00
2023-05-09T22:29:11.726Z,5.90
2023-05-09T22:31:38.782Z,5.80
2023-05-09T22:34:05.791Z,5.80
2023-05-09T22:36:33.424Z,5.80
2023-05-09T22:39:00.565Z,5.70
2023-05-09T22:41:27.666Z,5.60
2023-05-09T22:43:54.572Z,5.50
2023-05-09T22:46:21.556Z,5.50
2023-05-09T22:48:48.509Z,5.50
2023-05-09T22:51:15.704Z,5.40
2023-05-09T22:53:42.854Z,5.40
2023-05-09T22:56:10.037Z,5.30
2023-05-09T22:58:36.953Z,5.20
2023-05-09T23:01:03.958Z,5.20
2023-05-09T23:03:30.992Z,5.10
2023-05-09T23:05:57.942Z,5.10
2023-05-09T23:08:24.866Z,5.10
2023-05-09T23:10:51.971Z,5.10
2023-05-09T23:13:19.032Z,5.00
2023-05-09T23:15:47.656Z,5.00
2023-05-09T23:18:14.689Z,4.90
2023-05-09T23:20:41.715Z,4.80
2023-05-09T23:23:08.679Z,4.80
2023-05-09T23:25:35.695Z,4.90
2023-05-09T23:28:02.774Z,4.90
2023-05-09T23:30:29.742Z,4.80
2023-05-09T23:32:56.941Z,4.70
2023-05-09T23:35:26.255Z,4.70
2023-05-09T23:37:53.515Z,4.70
2023-05-09T23:40:20.817Z,4.70
2023-05-09T23:42:47.774Z,4.60
2023-05-09T23:45:15.106Z,4.60
2023-05-09T23:47:42.056Z,4.50
2023-05-09T23:50:09.362Z,4.50
2023-05-09T23:52:36.399Z,4.50
2023-05-09T23:55:03.476Z,4.60
2023-05-09T23:57:30.425Z,4.50
2023-05-09T23:59:57.454Z,4.50
